Kalamazoo, MI (49019)

6:23 AM EDT on August 28, 2016 (GMT -0400)
Millwood | | Change Station
Active Advisory: Flood Warning Active Notice: Local Storm Report

Elev 872 ft 42.25 °N, 85.56 °W | Updated 4 minutes ago

Mostly Cloudy
Mostly Cloudy
72.3 °F
Feels Like 70 °F
N
0.0
Wind Variable Wind from North
Gusts 1.2 mph

Today
High -- | Low -- °F
--% Chance of Precip.
Yesterday
High -- | Low -- °F
Precip. -- in
Pressure 30.16 in
Visibility 4.0 miles
Clouds Few 400 ft
Mostly Cloudy 3000 ft
Mostly Cloudy 11000 ft
Heat Index 70 °F
Dew Point 69 °F
Humidity 88%
Rainfall 0.00 in
Snow Depth Not available.
7:03 AM 8:22 PM
Waning Crescent, 17% visible
SPECI KAZO 281017Z 00000KT 4SM BR FEW004 BKN030 BKN110 22/21 A3016 RMK AO2 T02220206
Pressure 30.16 in
Visibility 4.0 miles
Clouds Few 400 ft
Mostly Cloudy 3000 ft
Mostly Cloudy 11000 ft
Heat Index 70 °F
Dew Point 69 °F
Humidity 88%
Rainfall 0.00 in
Snow Depth Not available.
7:03 AM 8:22 PM
Waning Crescent, 17% visible
SPECI KAZO 281017Z 00000KT 4SM BR FEW004 BKN030 BKN110 22/21 A3016 RMK AO2 T02220206

10-Day Weather Forecast

Almanac

Astronomy

Aug. 28, 2016 Rise Set
Actual Time
Civil Twilight
Nautical Twilight
Astronomical Twilight
Moon
Length of Visible Light
Length of Day
Tomorrow will be .
, % of the Moon is Illuminated

Today's Extremes

State Highs State Lows

Community

WunderPhotos

Upload Photos

1,935,541 photos uploaded!

WunderBlog® & News

Nearby

Air Quality

  Air Quality AQ Index Pollutant
Not available.

Snow Depth

Station Depth Elevation

Earthquake Activity

City Distance Mag. Time & Date
Minimum magnitude displayed is 2.5.

Coastal Water Temperatures

Place Temperature

Stations

Nearby Weather Stations

Station Location Temp. Windchill Dew Point Humidity Wind Precip. Elev Updated Type
                   

Watches & Warnings

Flood Warning
Issued: 10:35 AM EDT Aug. 27, 2016 – National Weather Service

The Flood Warning continues for
the Portage River near Vicksburg.
* Until late Monday night.
* At 7:00 am Saturday the stage was 4.96 feet.
* Flood stage is 5.0 feet.
* Forecast, the river is expected to rise to near flood stage
tomorrow early afternoon.
* Impact, at 5.0 feet... expect overflows into wooded areas and
farmland adjacent to the river
* flood history, this crest compares to a previous crest of 5.0 feet
on Apr 20 2013.


Lat... Lon 4208 8547 4211 8544 4216 8544 4215 8548
      4211 8553 4208 8552


63